sensor_id;sensor_type;location;lat;lon;timestamp;P1;durP1;ratioP1;P2;durP2;ratioP2
2313;SDS011;42279;51.388;7.000;2023-01-29T00:02:20;43.80;;;22.88;;
2313;SDS011;42279;51.388;7.000;2023-01-29T00:04:46;34.35;;;18.55;;
2313;SDS011;42279;51.388;7.000;2023-01-29T00:07:13;47.25;;;25.05;;
2313;SDS011;42279;51.388;7.000;2023-01-29T00:09:39;51.05;;;25.20;;
2313;SDS011;42279;51.388;7.000;2023-01-29T00:12:05;52.95;;;25.00;;
2313;SDS011;42279;51.388;7.000;2023-01-29T00:14:34;43.63;;;24.00;;
2313;SDS011;42279;51.388;7.000;2023-01-29T00:16:59;52.00;;;25.63;;
2313;SDS011;42279;51.388;7.000;2023-01-29T00:19:25;51.10;;;25.27;;
2313;SDS011;42279;51.388;7.000;2023-01-29T00:21:51;49.03;;;24.97;;
2313;SDS011;42279;51.388;7.000;2023-01-29T00:24:18;47.28;;;22.38;;
2313;SDS011;42279;51.388;7.000;2023-01-29T00:26:44;46.75;;;24.30;;
2313;SDS011;42279;51.388;7.000;2023-01-29T00:29:10;50.08;;;27.58;;
2313;SDS011;42279;51.388;7.000;2023-01-29T00:31:36;42.15;;;24.27;;
2313;SDS011;42279;51.388;7.000;2023-01-29T00:34:02;45.65;;;23.60;;
2313;SDS011;42279;51.388;7.000;2023-01-29T00:36:28;47.00;;;23.90;;
2313;SDS011;42279;51.388;7.000;2023-01-29T00:38:55;55.92;;;26.38;;
2313;SDS011;42279;51.388;7.000;2023-01-29T00:41:22;50.30;;;25.92;;
2313;SDS011;42279;51.388;7.000;2023-01-29T00:44:07;42.45;;;20.67;;
2313;SDS011;42279;51.388;7.000;2023-01-29T00:46:52;39.38;;;22.30;;
2313;SDS011;42279;51.388;7.000;2023-01-29T00:49:18;52.72;;;24.45;;
2313;SDS011;42279;51.388;7.000;2023-01-29T00:51:44;48.60;;;24.65;;
2313;SDS011;42279;51.388;7.000;2023-01-29T00:54:30;43.88;;;22.45;;
2313;SDS011;42279;51.388;7.000;2023-01-29T00:56:56;57.88;;;27.17;;
2313;SDS011;42279;51.388;7.000;2023-01-29T00:59:22;47.37;;;24.90;;
2313;SDS011;42279;51.388;7.000;2023-01-29T01:01:48;50.88;;;25.63;;
2313;SDS011;42279;51.388;7.000;2023-01-29T01:04:33;44.60;;;23.70;;
2313;SDS011;42279;51.388;7.000;2023-01-29T01:06:59;49.20;;;22.15;;
2313;SDS011;42279;51.388;7.000;2023-01-29T01:09:25;54.27;;;26.33;;
2313;SDS011;42279;51.388;7.000;2023-01-29T01:12:09;51.03;;;26.02;;
2313;SDS011;42279;51.388;7.000;2023-01-29T01:14:35;54.25;;;26.25;;
2313;SDS011;42279;51.388;7.000;2023-01-29T01:17:07;51.53;;;25.30;;
2313;SDS011;42279;51.388;7.000;2023-01-29T01:19:33;50.55;;;26.83;;
2313;SDS011;42279;51.388;7.000;2023-01-29T01:21:59;56.05;;;26.15;;
2313;SDS011;42279;51.388;7.000;2023-01-29T01:24:25;64.07;;;27.48;;
2313;SDS011;42279;51.388;7.000;2023-01-29T01:26:51;50.40;;;24.10;;
2313;SDS011;42279;51.388;7.000;2023-01-29T01:29:17;51.30;;;26.90;;
2313;SDS011;42279;51.388;7.000;2023-01-29T01:31:43;64.05;;;29.63;;
2313;SDS011;42279;51.388;7.000;2023-01-29T01:34:09;58.47;;;28.10;;
2313;SDS011;42279;51.388;7.000;2023-01-29T01:36:35;60.50;;;28.50;;
2313;SDS011;42279;51.388;7.000;2023-01-29T01:39:02;56.03;;;27.30;;
2313;SDS011;42279;51.388;7.000;2023-01-29T01:41:28;54.83;;;29.02;;
2313;SDS011;42279;51.388;7.000;2023-01-29T01:43:56;58.25;;;24.27;;
2313;SDS011;42279;51.388;7.000;2023-01-29T01:46:22;46.38;;;22.13;;
2313;SDS011;42279;51.388;7.000;2023-01-29T01:48:56;61.40;;;28.20;;
2313;SDS011;42279;51.388;7.000;2023-01-29T01:51:23;68.53;;;30.02;;
2313;SDS011;42279;51.388;7.000;2023-01-29T01:53:55;77.47;;;29.65;;
2313;SDS011;42279;51.388;7.000;2023-01-29T01:56:24;52.40;;;26.33;;
2313;SDS011;42279;51.388;7.000;2023-01-29T01:58:55;62.55;;;29.35;;
2313;SDS011;42279;51.388;7.000;2023-01-29T02:01:23;58.67;;;28.25;;
2313;SDS011;42279;51.388;7.000;2023-01-29T02:04:03;55.50;;;26.52;;
2313;SDS011;42279;51.388;7.000;2023-01-29T02:06:49;50.15;;;23.08;;
2313;SDS011;42279;51.388;7.000;2023-01-29T02:09:36;47.70;;;21.85;;
2313;SDS011;42279;51.388;7.000;2023-01-29T02:12:06;51.38;;;25.40;;
2313;SDS011;42279;51.388;7.000;2023-01-29T02:14:34;51.92;;;25.33;;
2313;SDS011;42279;51.388;7.000;2023-01-29T02:17:07;61.03;;;30.00;;
2313;SDS011;42279;51.388;7.000;2023-01-29T02:27:45;53.67;;;26.88;;
2313;SDS011;42279;51.388;7.000;2023-01-29T02:30:16;72.28;;;29.55;;
2313;SDS011;42279;51.388;7.000;2023-01-29T02:32:57;59.85;;;29.92;;
2313;SDS011;42279;51.388;7.000;2023-01-29T02:35:26;37.92;;;22.70;;
2313;SDS011;42279;51.388;7.000;2023-01-29T02:40:30;62.83;;;27.70;;
2313;SDS011;42279;51.388;7.000;2023-01-29T02:45:43;59.35;;;28.50;;
2313;SDS011;42279;51.388;7.000;2023-01-29T02:48:18;60.83;;;27.60;;
2313;SDS011;42279;51.388;7.000;2023-01-29T02:50:58;58.05;;;28.00;;
2313;SDS011;42279;51.388;7.000;2023-01-29T02:53:34;57.35;;;27.30;;
2313;SDS011;42279;51.388;7.000;2023-01-29T02:56:06;64.10;;;29.58;;
2313;SDS011;42279;51.388;7.000;2023-01-29T03:01:06;47.20;;;24.25;;
2313;SDS011;42279;51.388;7.000;2023-01-29T03:03:35;55.30;;;29.08;;
2313;SDS011;42279;51.388;7.000;2023-01-29T03:06:07;62.83;;;29.75;;
2313;SDS011;42279;51.388;7.000;2023-01-29T03:08:38;58.72;;;29.02;;
2313;SDS011;42279;51.388;7.000;2023-01-29T03:11:10;61.13;;;27.75;;
2313;SDS011;42279;51.388;7.000;2023-01-29T03:16:19;73.25;;;31.48;;
2313;SDS011;42279;51.388;7.000;2023-01-29T03:18:56;66.25;;;30.75;;
2313;SDS011;42279;51.388;7.000;2023-01-29T03:21:28;61.95;;;29.60;;
2313;SDS011;42279;51.388;7.000;2023-01-29T03:24:15;67.30;;;28.90;;
2313;SDS011;42279;51.388;7.000;2023-01-29T03:27:02;53.05;;;24.30;;
2313;SDS011;42279;51.388;7.000;2023-01-29T03:29:47;52.97;;;24.35;;
2313;SDS011;42279;51.388;7.000;2023-01-29T03:32:33;59.70;;;28.40;;
2313;SDS011;42279;51.388;7.000;2023-01-29T03:35:02;79.28;;;29.38;;
2313;SDS011;42279;51.388;7.000;2023-01-29T03:37:40;66.40;;;29.02;;
2313;SDS011;42279;51.388;7.000;2023-01-29T03:40:07;64.07;;;27.63;;
2313;SDS011;42279;51.388;7.000;2023-01-29T03:45:26;64.25;;;31.05;;
2313;SDS011;42279;51.388;7.000;2023-01-29T03:48:10;64.60;;;29.58;;
2313;SDS011;42279;51.388;7.000;2023-01-29T03:53:16;72.57;;;31.83;;
2313;SDS011;42279;51.388;7.000;2023-01-29T03:55:58;65.95;;;26.90;;
2313;SDS011;42279;51.388;7.000;2023-01-29T04:01:19;74.63;;;33.65;;
2313;SDS011;42279;51.388;7.000;2023-01-29T04:06:12;61.50;;;27.85;;
2313;SDS011;42279;51.388;7.000;2023-01-29T04:11:11;58.70;;;25.83;;
2313;SDS011;42279;51.388;7.000;2023-01-29T04:13:39;69.65;;;31.02;;
2313;SDS011;42279;51.388;7.000;2023-01-29T04:16:05;55.25;;;26.23;;
2313;SDS011;42279;51.388;7.000;2023-01-29T04:18:33;47.95;;;22.40;;
2313;SDS011;42279;51.388;7.000;2023-01-29T04:20:59;60.78;;;27.52;;
2313;SDS011;42279;51.388;7.000;2023-01-29T04:23:26;50.80;;;26.00;;
2313;SDS011;42279;51.388;7.000;2023-01-29T04:25:53;56.08;;;27.95;;
2313;SDS011;42279;51.388;7.000;2023-01-29T04:28:27;63.00;;;26.90;;
2313;SDS011;42279;51.388;7.000;2023-01-29T04:30:56;57.33;;;26.42;;
2313;SDS011;42279;51.388;7.000;2023-01-29T04:36:02;56.28;;;24.65;;
2313;SDS011;42279;51.388;7.000;2023-01-29T04:38:44;58.50;;;25.70;;
2313;SDS011;42279;51.388;7.000;2023-01-29T04:41:26;65.78;;;30.15;;
2313;SDS011;42279;51.388;7.000;2023-01-29T04:49:01;57.87;;;26.57;;
2313;SDS011;42279;51.388;7.000;2023-01-29T04:51:33;53.28;;;26.15;;
2313;SDS011;42279;51.388;7.000;2023-01-29T04:54:25;62.47;;;28.02;;
2313;SDS011;42279;51.388;7.000;2023-01-29T04:59:18;52.92;;;25.10;;
2313;SDS011;42279;51.388;7.000;2023-01-29T05:01:46;64.05;;;28.58;;
2313;SDS011;42279;51.388;7.000;2023-01-29T05:04:13;61.17;;;31.80;;
2313;SDS011;42279;51.388;7.000;2023-01-29T05:06:41;55.72;;;29.45;;
2313;SDS011;42279;51.388;7.000;2023-01-29T05:09:10;62.30;;;30.60;;
2313;SDS011;42279;51.388;7.000;2023-01-29T05:11:37;64.00;;;31.15;;
2313;SDS011;42279;51.388;7.000;2023-01-29T05:14:03;54.45;;;27.77;;
2313;SDS011;42279;51.388;7.000;2023-01-29T05:16:33;66.68;;;27.73;;
2313;SDS011;42279;51.388;7.000;2023-01-29T05:19:06;57.63;;;27.65;;
2313;SDS011;42279;51.388;7.000;2023-01-29T05:21:33;55.25;;;26.77;;
2313;SDS011;42279;51.388;7.000;2023-01-29T05:24:33;54.15;;;26.73;;
2313;SDS011;42279;51.388;7.000;2023-01-29T05:26:52;52.90;;;28.75;;
2313;SDS011;42279;51.388;7.000;2023-01-29T05:29:38;56.45;;;28.88;;
2313;SDS011;42279;51.388;7.000;2023-01-29T05:32:07;66.10;;;29.40;;
2313;SDS011;42279;51.388;7.000;2023-01-29T05:34:33;47.53;;;22.70;;
2313;SDS011;42279;51.388;7.000;2023-01-29T05:36:59;55.77;;;25.40;;
2313;SDS011;42279;51.388;7.000;2023-01-29T05:39:25;50.58;;;28.10;;
2313;SDS011;42279;51.388;7.000;2023-01-29T05:41:51;54.40;;;28.60;;
2313;SDS011;42279;51.388;7.000;2023-01-29T05:44:17;50.60;;;25.52;;
2313;SDS011;42279;51.388;7.000;2023-01-29T05:46:44;47.97;;;24.08;;
2313;SDS011;42279;51.388;7.000;2023-01-29T05:49:10;50.10;;;26.00;;
2313;SDS011;42279;51.388;7.000;2023-01-29T05:51:36;53.67;;;26.15;;
2313;SDS011;42279;51.388;7.000;2023-01-29T05:54:02;60.13;;;28.47;;
2313;SDS011;42279;51.388;7.000;2023-01-29T05:56:28;38.03;;;20.33;;
2313;SDS011;42279;51.388;7.000;2023-01-29T05:58:54;46.17;;;22.87;;
2313;SDS011;42279;51.388;7.000;2023-01-29T06:01:21;58.55;;;26.98;;
2313;SDS011;42279;51.388;7.000;2023-01-29T06:03:48;51.90;;;25.13;;
2313;SDS011;42279;51.388;7.000;2023-01-29T06:06:14;50.08;;;25.52;;
2313;SDS011;42279;51.388;7.000;2023-01-29T06:08:40;55.75;;;25.98;;
2313;SDS011;42279;51.388;7.000;2023-01-29T06:11:06;56.72;;;27.63;;
2313;SDS011;42279;51.388;7.000;2023-01-29T06:13:33;49.95;;;26.13;;
2313;SDS011;42279;51.388;7.000;2023-01-29T06:15:59;47.67;;;22.08;;
2313;SDS011;42279;51.388;7.000;2023-01-29T06:18:25;49.53;;;24.60;;
2313;SDS011;42279;51.388;7.000;2023-01-29T06:20:51;52.10;;;25.30;;
2313;SDS011;42279;51.388;7.000;2023-01-29T06:23:17;48.60;;;26.77;;
2313;SDS011;42279;51.388;7.000;2023-01-29T06:25:43;53.27;;;26.70;;
2313;SDS011;42279;51.388;7.000;2023-01-29T06:28:09;55.65;;;27.98;;
2313;SDS011;42279;51.388;7.000;2023-01-29T06:30:35;54.53;;;26.00;;
2313;SDS011;42279;51.388;7.000;2023-01-29T06:33:01;51.75;;;24.90;;
2313;SDS011;42279;51.388;7.000;2023-01-29T06:35:27;53.47;;;26.02;;
2313;SDS011;42279;51.388;7.000;2023-01-29T06:37:53;62.20;;;29.00;;
2313;SDS011;42279;51.388;7.000;2023-01-29T06:40:19;50.70;;;26.55;;
2313;SDS011;42279;51.388;7.000;2023-01-29T06:42:45;54.83;;;26.13;;
2313;SDS011;42279;51.388;7.000;2023-01-29T06:45:11;50.00;;;24.20;;
2313;SDS011;42279;51.388;7.000;2023-01-29T06:47:37;61.83;;;27.60;;
2313;SDS011;42279;51.388;7.000;2023-01-29T06:50:03;53.80;;;26.15;;
2313;SDS011;42279;51.388;7.000;2023-01-29T06:52:29;51.78;;;24.48;;
2313;SDS011;42279;51.388;7.000;2023-01-29T06:54:55;46.35;;;23.65;;
2313;SDS011;42279;51.388;7.000;2023-01-29T06:57:21;45.83;;;21.20;;
2313;SDS011;42279;51.388;7.000;2023-01-29T06:59:47;55.92;;;26.23;;
2313;SDS011;42279;51.388;7.000;2023-01-29T07:02:13;51.53;;;25.05;;
2313;SDS011;42279;51.388;7.000;2023-01-29T07:04:39;52.65;;;21.73;;
2313;SDS011;42279;51.388;7.000;2023-01-29T07:07:07;58.13;;;26.92;;
2313;SDS011;42279;51.388;7.000;2023-01-29T07:09:37;49.42;;;23.45;;
2313;SDS011;42279;51.388;7.000;2023-01-29T07:12:03;48.25;;;26.15;;
2313;SDS011;42279;51.388;7.000;2023-01-29T07:14:29;44.42;;;24.65;;
2313;SDS011;42279;51.388;7.000;2023-01-29T07:16:55;44.20;;;22.77;;
2313;SDS011;42279;51.388;7.000;2023-01-29T07:19:21;40.00;;;19.00;;
2313;SDS011;42279;51.388;7.000;2023-01-29T07:21:47;46.10;;;25.30;;
2313;SDS011;42279;51.388;7.000;2023-01-29T07:24:13;53.47;;;27.20;;
2313;SDS011;42279;51.388;7.000;2023-01-29T07:26:40;52.70;;;28.23;;
2313;SDS011;42279;51.388;7.000;2023-01-29T07:29:06;46.42;;;26.38;;
2313;SDS011;42279;51.388;7.000;2023-01-29T07:31:32;47.28;;;22.60;;
2313;SDS011;42279;51.388;7.000;2023-01-29T07:33:58;50.78;;;26.92;;
2313;SDS011;42279;51.388;7.000;2023-01-29T07:36:24;39.65;;;19.35;;
2313;SDS011;42279;51.388;7.000;2023-01-29T07:38:51;35.22;;;19.25;;
2313;SDS011;42279;51.388;7.000;2023-01-29T07:41:17;55.50;;;25.73;;
2313;SDS011;42279;51.388;7.000;2023-01-29T07:43:43;50.92;;;26.23;;
2313;SDS011;42279;51.388;7.000;2023-01-29T07:46:09;39.70;;;20.40;;
2313;SDS011;42279;51.388;7.000;2023-01-29T07:48:37;45.80;;;23.27;;
2313;SDS011;42279;51.388;7.000;2023-01-29T07:51:04;33.53;;;16.98;;
2313;SDS011;42279;51.388;7.000;2023-01-29T07:53:30;31.48;;;14.30;;
2313;SDS011;42279;51.388;7.000;2023-01-29T07:55:56;47.88;;;22.83;;
2313;SDS011;42279;51.388;7.000;2023-01-29T07:58:22;46.27;;;22.97;;
2313;SDS011;42279;51.388;7.000;2023-01-29T08:00:48;51.88;;;25.83;;
2313;SDS011;42279;51.388;7.000;2023-01-29T08:03:15;52.15;;;26.90;;
2313;SDS011;42279;51.388;7.000;2023-01-29T08:05:42;50.08;;;27.33;;
2313;SDS011;42279;51.388;7.000;2023-01-29T08:08:08;49.88;;;26.17;;
2313;SDS011;42279;51.388;7.000;2023-01-29T08:10:38;53.90;;;29.25;;
2313;SDS011;42279;51.388;7.000;2023-01-29T08:13:04;49.47;;;20.75;;
2313;SDS011;42279;51.388;7.000;2023-01-29T08:15:31;42.17;;;22.02;;
2313;SDS011;42279;51.388;7.000;2023-01-29T08:17:57;52.40;;;27.27;;
2313;SDS011;42279;51.388;7.000;2023-01-29T08:20:23;53.40;;;26.48;;
2313;SDS011;42279;51.388;7.000;2023-01-29T08:22:51;45.03;;;25.35;;
2313;SDS011;42279;51.388;7.000;2023-01-29T08:25:23;53.80;;;28.30;;
2313;SDS011;42279;51.388;7.000;2023-01-29T08:27:49;37.70;;;21.25;;
2313;SDS011;42279;51.388;7.000;2023-01-29T08:30:15;52.67;;;26.40;;
2313;SDS011;42279;51.388;7.000;2023-01-29T08:32:41;45.55;;;23.67;;
2313;SDS011;42279;51.388;7.000;2023-01-29T08:35:07;40.10;;;22.03;;
2313;SDS011;42279;51.388;7.000;2023-01-29T08:37:33;61.25;;;28.00;;
2313;SDS011;42279;51.388;7.000;2023-01-29T08:39:59;55.43;;;23.47;;
2313;SDS011;42279;51.388;7.000;2023-01-29T08:42:25;57.90;;;28.10;;
2313;SDS011;42279;51.388;7.000;2023-01-29T08:44:51;47.83;;;25.27;;
2313;SDS011;42279;51.388;7.000;2023-01-29T08:47:17;52.90;;;26.07;;
2313;SDS011;42279;51.388;7.000;2023-01-29T08:49:43;57.13;;;27.90;;
2313;SDS011;42279;51.388;7.000;2023-01-29T08:52:09;33.70;;;18.00;;
2313;SDS011;42279;51.388;7.000;2023-01-29T08:54:35;54.87;;;26.47;;
2313;SDS011;42279;51.388;7.000;2023-01-29T08:57:01;47.87;;;25.00;;
2313;SDS011;42279;51.388;7.000;2023-01-29T08:59:27;35.00;;;19.50;;
2313;SDS011;42279;51.388;7.000;2023-01-29T09:01:53;50.78;;;25.00;;
2313;SDS011;42279;51.388;7.000;2023-01-29T09:04:19;35.47;;;20.50;;
2313;SDS011;42279;51.388;7.000;2023-01-29T09:06:45;43.27;;;21.57;;
2313;SDS011;42279;51.388;7.000;2023-01-29T09:09:14;42.38;;;23.48;;
2313;SDS011;42279;51.388;7.000;2023-01-29T09:11:40;56.83;;;26.42;;
2313;SDS011;42279;51.388;7.000;2023-01-29T09:14:08;22.08;;;12.63;;
2313;SDS011;42279;51.388;7.000;2023-01-29T09:16:40;51.53;;;26.27;;
2313;SDS011;42279;51.388;7.000;2023-01-29T09:19:09;25.58;;;13.27;;
2313;SDS011;42279;51.388;7.000;2023-01-29T09:21:35;43.63;;;23.77;;
2313;SDS011;42279;51.388;7.000;2023-01-29T09:24:01;51.50;;;27.40;;
2313;SDS011;42279;51.388;7.000;2023-01-29T09:26:27;41.70;;;22.43;;
2313;SDS011;42279;51.388;7.000;2023-01-29T09:28:53;55.60;;;26.33;;
2313;SDS011;42279;51.388;7.000;2023-01-29T09:31:19;44.85;;;25.85;;
2313;SDS011;42279;51.388;7.000;2023-01-29T09:33:45;29.83;;;17.60;;
2313;SDS011;42279;51.388;7.000;2023-01-29T09:36:11;29.88;;;16.67;;
2313;SDS011;42279;51.388;7.000;2023-01-29T09:38:38;48.30;;;25.38;;
2313;SDS011;42279;51.388;7.000;2023-01-29T09:41:26;37.63;;;19.97;;
2313;SDS011;42279;51.388;7.000;2023-01-29T09:43:56;44.40;;;23.80;;
2313;SDS011;42279;51.388;7.000;2023-01-29T09:46:32;36.00;;;21.17;;
2313;SDS011;42279;51.388;7.000;2023-01-29T09:49:02;40.05;;;20.08;;
2313;SDS011;42279;51.388;7.000;2023-01-29T09:51:34;29.73;;;15.52;;
2313;SDS011;42279;51.388;7.000;2023-01-29T09:56:35;17.85;;;13.13;;
2313;SDS011;42279;51.388;7.000;2023-01-29T09:59:06;47.17;;;25.17;;
2313;SDS011;42279;51.388;7.000;2023-01-29T10:01:49;50.33;;;24.77;;
2313;SDS011;42279;51.388;7.000;2023-01-29T10:12:13;37.33;;;20.73;;
2313;SDS011;42279;51.388;7.000;2023-01-29T10:14:56;46.47;;;24.67;;
2313;SDS011;42279;51.388;7.000;2023-01-29T10:22:31;48.37;;;22.60;;
2313;SDS011;42279;51.388;7.000;2023-01-29T10:25:02;40.08;;;17.38;;
2313;SDS011;42279;51.388;7.000;2023-01-29T10:27:31;44.85;;;23.35;;
2313;SDS011;42279;51.388;7.000;2023-01-29T10:29:58;40.47;;;21.17;;
2313;SDS011;42279;51.388;7.000;2023-01-29T10:32:36;46.75;;;23.75;;
2313;SDS011;42279;51.388;7.000;2023-01-29T10:35:03;41.92;;;23.77;;
2313;SDS011;42279;51.388;7.000;2023-01-29T10:37:38;46.83;;;24.35;;
2313;SDS011;42279;51.388;7.000;2023-01-29T10:40:38;26.65;;;14.40;;
2313;SDS011;42279;51.388;7.000;2023-01-29T10:43:00;52.83;;;26.10;;
2313;SDS011;42279;51.388;7.000;2023-01-29T10:45:38;40.45;;;20.23;;
2313;SDS011;42279;51.388;7.000;2023-01-29T10:50:50;38.97;;;19.92;;
2313;SDS011;42279;51.388;7.000;2023-01-29T10:53:26;31.48;;;17.55;;
2313;SDS011;42279;51.388;7.000;2023-01-29T10:58:44;33.92;;;19.95;;
2313;SDS011;42279;51.388;7.000;2023-01-29T11:01:12;32.65;;;17.40;;
2313;SDS011;42279;51.388;7.000;2023-01-29T11:03:41;26.52;;;14.50;;
2313;SDS011;42279;51.388;7.000;2023-01-29T11:06:11;42.72;;;21.38;;
2313;SDS011;42279;51.388;7.000;2023-01-29T11:11:13;43.08;;;22.67;;
2313;SDS011;42279;51.388;7.000;2023-01-29T11:16:11;45.90;;;23.80;;
2313;SDS011;42279;51.388;7.000;2023-01-29T11:18:47;32.00;;;17.48;;
2313;SDS011;42279;51.388;7.000;2023-01-29T11:21:13;43.83;;;23.33;;
2313;SDS011;42279;51.388;7.000;2023-01-29T11:23:46;25.27;;;13.38;;
2313;SDS011;42279;51.388;7.000;2023-01-29T11:26:12;31.75;;;18.13;;
2313;SDS011;42279;51.388;7.000;2023-01-29T11:28:43;39.13;;;22.90;;
2313;SDS011;42279;51.388;7.000;2023-01-29T11:31:25;27.73;;;16.90;;
2313;SDS011;42279;51.388;7.000;2023-01-29T11:33:52;28.88;;;16.30;;
2313;SDS011;42279;51.388;7.000;2023-01-29T11:36:19;26.25;;;14.50;;
2313;SDS011;42279;51.388;7.000;2023-01-29T11:38:46;40.03;;;21.67;;
2313;SDS011;42279;51.388;7.000;2023-01-29T11:41:15;39.67;;;19.60;;
2313;SDS011;42279;51.388;7.000;2023-01-29T11:43:46;30.70;;;16.25;;
2313;SDS011;42279;51.388;7.000;2023-01-29T11:46:12;47.90;;;26.85;;
2313;SDS011;42279;51.388;7.000;2023-01-29T11:48:40;42.55;;;23.30;;
2313;SDS011;42279;51.388;7.000;2023-01-29T11:51:07;43.45;;;21.85;;
2313;SDS011;42279;51.388;7.000;2023-01-29T11:59:02;51.47;;;22.77;;
2313;SDS011;42279;51.388;7.000;2023-01-29T12:01:36;37.38;;;21.55;;
2313;SDS011;42279;51.388;7.000;2023-01-29T12:04:14;39.60;;;19.83;;
2313;SDS011;42279;51.388;7.000;2023-01-29T12:06:43;39.72;;;20.17;;
2313;SDS011;42279;51.388;7.000;2023-01-29T12:09:15;40.67;;;20.80;;
2313;SDS011;42279;51.388;7.000;2023-01-29T12:11:43;36.50;;;22.02;;
2313;SDS011;42279;51.388;7.000;2023-01-29T12:17:15;42.03;;;24.33;;
2313;SDS011;42279;51.388;7.000;2023-01-29T12:19:48;35.42;;;16.40;;
2313;SDS011;42279;51.388;7.000;2023-01-29T12:27:47;41.65;;;21.88;;
2313;SDS011;42279;51.388;7.000;2023-01-29T12:38:08;40.80;;;22.17;;
2313;SDS011;42279;51.388;7.000;2023-01-29T12:40:45;33.85;;;18.08;;
2313;SDS011;42279;51.388;7.000;2023-01-29T12:43:16;37.60;;;20.60;;
2313;SDS011;42279;51.388;7.000;2023-01-29T12:45:43;37.78;;;22.05;;
2313;SDS011;42279;51.388;7.000;2023-01-29T12:48:12;37.95;;;20.77;;
2313;SDS011;42279;51.388;7.000;2023-01-29T12:50:39;50.50;;;26.23;;
2313;SDS011;42279;51.388;7.000;2023-01-29T12:53:18;40.83;;;22.60;;
2313;SDS011;42279;51.388;7.000;2023-01-29T12:55:51;41.33;;;24.42;;
2313;SDS011;42279;51.388;7.000;2023-01-29T13:00:45;52.20;;;25.20;;
2313;SDS011;42279;51.388;7.000;2023-01-29T13:03:26;40.67;;;23.27;;
2313;SDS011;42279;51.388;7.000;2023-01-29T13:06:07;36.93;;;20.93;;
2313;SDS011;42279;51.388;7.000;2023-01-29T13:08:39;47.92;;;22.25;;
2313;SDS011;42279;51.388;7.000;2023-01-29T13:11:08;40.42;;;22.25;;
2313;SDS011;42279;51.388;7.000;2023-01-29T13:16:16;41.00;;;20.48;;
2313;SDS011;42279;51.388;7.000;2023-01-29T13:18:49;37.13;;;19.95;;
2313;SDS011;42279;51.388;7.000;2023-01-29T13:21:17;30.45;;;17.85;;
2313;SDS011;42279;51.388;7.000;2023-01-29T13:24:08;37.33;;;21.65;;
2313;SDS011;42279;51.388;7.000;2023-01-29T13:26:29;43.17;;;24.13;;
2313;SDS011;42279;51.388;7.000;2023-01-29T13:28:56;36.15;;;20.60;;
2313;SDS011;42279;51.388;7.000;2023-01-29T13:31:25;39.35;;;17.77;;
2313;SDS011;42279;51.388;7.000;2023-01-29T13:36:27;36.75;;;19.48;;
2313;SDS011;42279;51.388;7.000;2023-01-29T13:39:06;33.67;;;19.60;;
2313;SDS011;42279;51.388;7.000;2023-01-29T13:41:37;37.85;;;21.95;;
2313;SDS011;42279;51.388;7.000;2023-01-29T13:44:06;45.25;;;23.65;;
2313;SDS011;42279;51.388;7.000;2023-01-29T13:46:33;35.72;;;19.95;;
2313;SDS011;42279;51.388;7.000;2023-01-29T13:49:04;48.45;;;24.13;;
2313;SDS011;42279;51.388;7.000;2023-01-29T13:51:32;33.10;;;19.08;;
2313;SDS011;42279;51.388;7.000;2023-01-29T13:54:01;22.88;;;10.70;;
2313;SDS011;42279;51.388;7.000;2023-01-29T13:59:01;38.30;;;21.60;;
2313;SDS011;42279;51.388;7.000;2023-01-29T14:06:46;31.15;;;18.15;;
2313;SDS011;42279;51.388;7.000;2023-01-29T14:11:57;34.90;;;19.15;;
2313;SDS011;42279;51.388;7.000;2023-01-29T14:17:08;25.95;;;12.63;;
2313;SDS011;42279;51.388;7.000;2023-01-29T14:19:35;39.47;;;22.95;;
2313;SDS011;42279;51.388;7.000;2023-01-29T14:22:01;36.10;;;22.35;;
2313;SDS011;42279;51.388;7.000;2023-01-29T14:24:28;42.87;;;22.57;;
2313;SDS011;42279;51.388;7.000;2023-01-29T14:26:55;50.20;;;24.73;;
2313;SDS011;42279;51.388;7.000;2023-01-29T14:29:25;41.25;;;21.15;;
2313;SDS011;42279;51.388;7.000;2023-01-29T14:31:53;35.17;;;19.45;;
2313;SDS011;42279;51.388;7.000;2023-01-29T14:36:46;43.97;;;21.08;;
2313;SDS011;42279;51.388;7.000;2023-01-29T14:39:23;25.50;;;13.05;;
2313;SDS011;42279;51.388;7.000;2023-01-29T14:41:52;38.67;;;22.30;;
2313;SDS011;42279;51.388;7.000;2023-01-29T14:47:03;45.75;;;22.38;;
2313;SDS011;42279;51.388;7.000;2023-01-29T14:49:49;44.67;;;24.25;;
2313;SDS011;42279;51.388;7.000;2023-01-29T14:52:15;14.57;;;9.45;;
2313;SDS011;42279;51.388;7.000;2023-01-29T14:54:43;39.15;;;21.05;;
2313;SDS011;42279;51.388;7.000;2023-01-29T14:57:11;48.22;;;23.98;;
2313;SDS011;42279;51.388;7.000;2023-01-29T14:59:58;38.15;;;17.95;;
2313;SDS011;42279;51.388;7.000;2023-01-29T15:02:27;40.35;;;21.38;;
2313;SDS011;42279;51.388;7.000;2023-01-29T15:05:00;35.10;;;18.50;;
2313;SDS011;42279;51.388;7.000;2023-01-29T15:07:37;26.77;;;16.13;;
2313;SDS011;42279;51.388;7.000;2023-01-29T15:10:07;48.42;;;23.10;;
2313;SDS011;42279;51.388;7.000;2023-01-29T15:12:43;40.60;;;22.77;;
2313;SDS011;42279;51.388;7.000;2023-01-29T15:20:29;41.72;;;22.02;;
2313;SDS011;42279;51.388;7.000;2023-01-29T15:22:56;36.78;;;21.60;;
2313;SDS011;42279;51.388;7.000;2023-01-29T15:25:22;31.42;;;17.40;;
2313;SDS011;42279;51.388;7.000;2023-01-29T15:27:48;41.83;;;21.60;;
2313;SDS011;42279;51.388;7.000;2023-01-29T15:32:41;37.38;;;20.45;;
2313;SDS011;42279;51.388;7.000;2023-01-29T15:37:33;32.15;;;16.25;;
2313;SDS011;42279;51.388;7.000;2023-01-29T15:40:00;34.25;;;16.90;;
2313;SDS011;42279;51.388;7.000;2023-01-29T15:42:27;44.25;;;22.90;;
2313;SDS011;42279;51.388;7.000;2023-01-29T15:44:53;36.63;;;20.20;;
2313;SDS011;42279;51.388;7.000;2023-01-29T15:47:21;35.40;;;19.50;;
2313;SDS011;42279;51.388;7.000;2023-01-29T15:49:48;37.10;;;20.17;;
2313;SDS011;42279;51.388;7.000;2023-01-29T15:52:18;26.65;;;15.85;;
2313;SDS011;42279;51.388;7.000;2023-01-29T15:54:45;40.17;;;21.27;;
2313;SDS011;42279;51.388;7.000;2023-01-29T15:57:24;34.17;;;19.10;;
2313;SDS011;42279;51.388;7.000;2023-01-29T15:59:52;36.78;;;19.63;;
2313;SDS011;42279;51.388;7.000;2023-01-29T16:02:37;30.55;;;16.52;;
2313;SDS011;42279;51.388;7.000;2023-01-29T16:05:14;30.23;;;16.42;;
2313;SDS011;42279;51.388;7.000;2023-01-29T16:07:43;40.65;;;19.40;;
2313;SDS011;42279;51.388;7.000;2023-01-29T16:10:25;34.00;;;17.90;;
2313;SDS011;42279;51.388;7.000;2023-01-29T16:12:57;32.72;;;17.85;;
2313;SDS011;42279;51.388;7.000;2023-01-29T16:17:55;32.77;;;17.57;;
2313;SDS011;42279;51.388;7.000;2023-01-29T16:20:35;18.35;;;11.18;;
2313;SDS011;42279;51.388;7.000;2023-01-29T16:23:02;33.90;;;17.33;;
2313;SDS011;42279;51.388;7.000;2023-01-29T16:25:29;35.80;;;20.00;;
2313;SDS011;42279;51.388;7.000;2023-01-29T16:28:01;45.75;;;24.35;;
2313;SDS011;42279;51.388;7.000;2023-01-29T16:30:27;47.45;;;24.38;;
2313;SDS011;42279;51.388;7.000;2023-01-29T16:32:59;31.10;;;19.00;;
2313;SDS011;42279;51.388;7.000;2023-01-29T16:35:25;35.15;;;18.80;;
2313;SDS011;42279;51.388;7.000;2023-01-29T16:37:58;32.92;;;17.73;;
2313;SDS011;42279;51.388;7.000;2023-01-29T16:40:34;34.85;;;20.77;;
2313;SDS011;42279;51.388;7.000;2023-01-29T16:43:44;46.53;;;22.98;;
2313;SDS011;42279;51.388;7.000;2023-01-29T16:46:01;28.92;;;17.40;;
2313;SDS011;42279;51.388;7.000;2023-01-29T16:48:33;28.38;;;16.60;;
2313;SDS011;42279;51.388;7.000;2023-01-29T16:51:11;31.30;;;16.48;;
2313;SDS011;42279;51.388;7.000;2023-01-29T16:53:38;29.60;;;15.95;;
2313;SDS011;42279;51.388;7.000;2023-01-29T16:56:04;30.85;;;18.55;;
2313;SDS011;42279;51.388;7.000;2023-01-29T16:58:46;26.40;;;16.10;;